Aurora, Maine
Current Conditions -  °F | °C
As of 8:53 PM on Monday 20 Oct 2014 (Local Time) from KBGR Reporting Station
Broken Clouds Broken Clouds  
Wind Chill:   Ceiling: 12000
Heat Index:   Visibility: 10mi
Dew Point: -2°   Wind: 0mph
Humidity: 58%   Direction: NA
Pressure: 29.97"   Gusts: NA
Location:  44.85°N, 68.33°W
Report Text: KBGR 210053Z 00000KT 10SM BKN120 BKN200 06/M02 A2997 RMK AO2 SLP148 T00611017
Loading
Personal Weather Stations






























Interactive Weather Map
Tropical Storm Tracking
New forecast layout! Learn more

10-Day Weather Forecast

Advertisements
Track Severe Weather on mobile